Air Navigation Services of Czech Republic
Airport: LKKV Updated:  23.09.2017 23:09:04  UTC
 METAR LKKV 23.09. 23:00 ...
METAR LKKV 232300Z 09001KT CAVOK 07/06 Q1021 RMK REG QNH 1016=
 TAF LKKV 23.09. 23:00 ...
TAF LKKV 232300Z 2400/2506 VRB02KT 9999 SCT040      BECMG 2407/2410 BKN030      TEMPO 2410/2506 4000 -RA BR BKN013=